sensor_id;sensor_type;location;lat;lon;timestamp;temperature;humidity
54684;DHT22;40582;53.100;6.686;2022-09-27T00:00:40;9.90;99.90
54684;DHT22;40582;53.100;6.686;2022-09-27T00:03:10;9.90;99.90
54684;DHT22;40582;53.100;6.686;2022-09-27T00:05:36;9.90;99.90
54684;DHT22;40582;53.100;6.686;2022-09-27T00:08:02;9.90;99.90
54684;DHT22;40582;53.100;6.686;2022-09-27T00:10:28;9.80;99.90
54684;DHT22;40582;53.100;6.686;2022-09-27T00:12:54;9.70;99.90
54684;DHT22;40582;53.100;6.686;2022-09-27T00:15:20;9.70;99.90
54684;DHT22;40582;53.100;6.686;2022-09-27T00:17:46;9.70;99.90
54684;DHT22;40582;53.100;6.686;2022-09-27T00:20:17;9.70;99.90
54684;DHT22;40582;53.100;6.686;2022-09-27T00:22:44;9.70;99.90
54684;DHT22;40582;53.100;6.686;2022-09-27T00:25:10;9.70;99.90
54684;DHT22;40582;53.100;6.686;2022-09-27T00:27:35;9.70;99.90
54684;DHT22;40582;53.100;6.686;2022-09-27T00:30:01;9.70;99.90
54684;DHT22;40582;53.100;6.686;2022-09-27T00:32:27;9.70;99.90
54684;DHT22;40582;53.100;6.686;2022-09-27T00:34:53;9.70;99.90
54684;DHT22;40582;53.100;6.686;2022-09-27T00:37:18;9.60;99.90
54684;DHT22;40582;53.100;6.686;2022-09-27T00:39:45;9.60;99.90
54684;DHT22;40582;53.100;6.686;2022-09-27T00:42:14;9.60;99.90
54684;DHT22;40582;53.100;6.686;2022-09-27T00:50:13;9.50;99.90
54684;DHT22;40582;53.100;6.686;2022-09-27T00:53:03;9.50;99.90
54684;DHT22;40582;53.100;6.686;2022-09-27T00:55:42;9.50;99.90
54684;DHT22;40582;53.100;6.686;2022-09-27T00:58:10;9.50;99.90
54684;DHT22;40582;53.100;6.686;2022-09-27T01:00:41;9.50;99.90
54684;DHT22;40582;53.100;6.686;2022-09-27T01:03:13;9.50;99.90
54684;DHT22;40582;53.100;6.686;2022-09-27T01:05:40;9.50;99.90
54684;DHT22;40582;53.100;6.686;2022-09-27T01:08:06;9.50;99.90
54684;DHT22;40582;53.100;6.686;2022-09-27T01:10:40;9.50;99.90
54684;DHT22;40582;53.100;6.686;2022-09-27T01:15:50;9.50;99.90
54684;DHT22;40582;53.100;6.686;2022-09-27T01:32:35;9.30;99.90
54684;DHT22;40582;53.100;6.686;2022-09-27T01:38:01;9.40;99.90
54684;DHT22;40582;53.100;6.686;2022-09-27T01:40:51;9.40;99.90
54684;DHT22;40582;53.100;6.686;2022-09-27T01:43:38;9.40;99.90
54684;DHT22;40582;53.100;6.686;2022-09-27T01:46:14;9.50;99.90
54684;DHT22;40582;53.100;6.686;2022-09-27T01:48:45;9.50;99.90
54684;DHT22;40582;53.100;6.686;2022-09-27T01:51:19;9.50;99.90
54684;DHT22;40582;53.100;6.686;2022-09-27T01:53:55;9.60;99.90
54684;DHT22;40582;53.100;6.686;2022-09-27T01:56:48;9.60;99.90
54684;DHT22;40582;53.100;6.686;2022-09-27T02:02:08;9.50;99.90
54684;DHT22;40582;53.100;6.686;2022-09-27T02:04:38;9.50;99.90
54684;DHT22;40582;53.100;6.686;2022-09-27T02:07:31;9.50;99.90
54684;DHT22;40582;53.100;6.686;2022-09-27T02:10:02;9.60;99.90
54684;DHT22;40582;53.100;6.686;2022-09-27T02:12:34;9.60;99.90
54684;DHT22;40582;53.100;6.686;2022-09-27T02:15:11;9.60;99.90
54684;DHT22;40582;53.100;6.686;2022-09-27T02:17:42;9.60;99.90
54684;DHT22;40582;53.100;6.686;2022-09-27T02:25:43;9.40;99.90
54684;DHT22;40582;53.100;6.686;2022-09-27T02:28:21;9.40;99.90
54684;DHT22;40582;53.100;6.686;2022-09-27T02:30:47;9.40;99.90
54684;DHT22;40582;53.100;6.686;2022-09-27T02:33:13;9.50;99.90
54684;DHT22;40582;53.100;6.686;2022-09-27T02:35:39;9.50;99.90
54684;DHT22;40582;53.100;6.686;2022-09-27T02:38:06;9.50;99.90
54684;DHT22;40582;53.100;6.686;2022-09-27T02:40:35;9.50;99.90
54684;DHT22;40582;53.100;6.686;2022-09-27T02:43:03;9.50;99.90
54684;DHT22;40582;53.100;6.686;2022-09-27T02:48:30;9.50;99.90
54684;DHT22;40582;53.100;6.686;2022-09-27T02:56:58;9.40;99.90
54684;DHT22;40582;53.100;6.686;2022-09-27T02:59:36;9.40;99.90
54684;DHT22;40582;53.100;6.686;2022-09-27T03:07:29;9.40;99.90
54684;DHT22;40582;53.100;6.686;2022-09-27T03:09:55;9.40;99.90
54684;DHT22;40582;53.100;6.686;2022-09-27T03:12:21;9.40;99.90
54684;DHT22;40582;53.100;6.686;2022-09-27T03:14:57;9.40;99.90
54684;DHT22;40582;53.100;6.686;2022-09-27T03:17:23;9.40;99.90
54684;DHT22;40582;53.100;6.686;2022-09-27T03:19:49;9.30;99.90
54684;DHT22;40582;53.100;6.686;2022-09-27T03:22:15;9.30;99.90
54684;DHT22;40582;53.100;6.686;2022-09-27T03:24:41;9.20;99.90
54684;DHT22;40582;53.100;6.686;2022-09-27T03:27:07;9.20;99.90
54684;DHT22;40582;53.100;6.686;2022-09-27T03:29:32;9.20;99.90
54684;DHT22;40582;53.100;6.686;2022-09-27T03:32:00;9.10;99.90
54684;DHT22;40582;53.100;6.686;2022-09-27T03:34:26;9.10;99.90
54684;DHT22;40582;53.100;6.686;2022-09-27T03:36:52;9.00;99.90
54684;DHT22;40582;53.100;6.686;2022-09-27T03:39:17;9.70;99.90
54684;DHT22;40582;53.100;6.686;2022-09-27T03:41:43;9.10;99.90
54684;DHT22;40582;53.100;6.686;2022-09-27T03:44:09;9.50;99.90
54684;DHT22;40582;53.100;6.686;2022-09-27T03:46:34;9.10;99.90
54684;DHT22;40582;53.100;6.686;2022-09-27T03:49:00;9.00;99.90
54684;DHT22;40582;53.100;6.686;2022-09-27T03:51:26;9.00;99.90
54684;DHT22;40582;53.100;6.686;2022-09-27T03:53:52;9.00;99.90
54684;DHT22;40582;53.100;6.686;2022-09-27T03:56:18;8.90;99.90
54684;DHT22;40582;53.100;6.686;2022-09-27T03:58:43;8.90;99.90
54684;DHT22;40582;53.100;6.686;2022-09-27T04:01:09;8.90;99.90
54684;DHT22;40582;53.100;6.686;2022-09-27T04:03:35;8.90;99.90
54684;DHT22;40582;53.100;6.686;2022-09-27T04:06:02;8.80;99.90
54684;DHT22;40582;53.100;6.686;2022-09-27T04:08:28;9.10;99.90
54684;DHT22;40582;53.100;6.686;2022-09-27T04:10:55;8.90;99.90
54684;DHT22;40582;53.100;6.686;2022-09-27T04:13:21;8.90;99.90
54684;DHT22;40582;53.100;6.686;2022-09-27T04:15:47;8.90;99.90
54684;DHT22;40582;53.100;6.686;2022-09-27T04:18:13;9.00;99.90
54684;DHT22;40582;53.100;6.686;2022-09-27T04:20:39;9.00;99.90
54684;DHT22;40582;53.100;6.686;2022-09-27T04:23:05;9.00;99.90
54684;DHT22;40582;53.100;6.686;2022-09-27T04:25:31;9.00;99.90
54684;DHT22;40582;53.100;6.686;2022-09-27T04:27:58;9.00;99.90
54684;DHT22;40582;53.100;6.686;2022-09-27T04:30:26;9.00;99.90
54684;DHT22;40582;53.100;6.686;2022-09-27T04:32:52;9.30;99.90
54684;DHT22;40582;53.100;6.686;2022-09-27T04:35:18;8.90;99.90
54684;DHT22;40582;53.100;6.686;2022-09-27T04:38:02;9.00;99.90
54684;DHT22;40582;53.100;6.686;2022-09-27T04:40:28;8.90;99.90
54684;DHT22;40582;53.100;6.686;2022-09-27T04:42:54;8.90;99.90
54684;DHT22;40582;53.100;6.686;2022-09-27T04:45:21;8.90;99.90
54684;DHT22;40582;53.100;6.686;2022-09-27T04:47:48;8.90;99.90
54684;DHT22;40582;53.100;6.686;2022-09-27T04:50:15;8.90;99.90
54684;DHT22;40582;53.100;6.686;2022-09-27T04:52:42;9.00;99.90
54684;DHT22;40582;53.100;6.686;2022-09-27T04:55:08;8.90;99.90
54684;DHT22;40582;53.100;6.686;2022-09-27T04:57:35;9.00;99.90
54684;DHT22;40582;53.100;6.686;2022-09-27T05:00:02;9.00;99.90
54684;DHT22;40582;53.100;6.686;2022-09-27T05:02:28;9.00;99.90
54684;DHT22;40582;53.100;6.686;2022-09-27T05:04:55;9.00;99.90
54684;DHT22;40582;53.100;6.686;2022-09-27T05:07:25;9.00;99.90
54684;DHT22;40582;53.100;6.686;2022-09-27T05:09:51;9.00;99.90
54684;DHT22;40582;53.100;6.686;2022-09-27T05:12:18;9.00;99.90
54684;DHT22;40582;53.100;6.686;2022-09-27T05:14:43;9.00;99.90
54684;DHT22;40582;53.100;6.686;2022-09-27T05:17:09;9.00;99.90
54684;DHT22;40582;53.100;6.686;2022-09-27T05:19:35;9.00;99.90
54684;DHT22;40582;53.100;6.686;2022-09-27T05:22:03;9.00;99.90
54684;DHT22;40582;53.100;6.686;2022-09-27T05:24:28;9.00;99.90
54684;DHT22;40582;53.100;6.686;2022-09-27T05:26:56;9.00;99.90
54684;DHT22;40582;53.100;6.686;2022-09-27T05:29:21;9.00;99.90
54684;DHT22;40582;53.100;6.686;2022-09-27T05:31:47;9.00;99.90
54684;DHT22;40582;53.100;6.686;2022-09-27T05:34:14;9.00;99.90
54684;DHT22;40582;53.100;6.686;2022-09-27T05:36:40;9.00;99.90
54684;DHT22;40582;53.100;6.686;2022-09-27T05:39:06;9.10;99.90
54684;DHT22;40582;53.100;6.686;2022-09-27T05:41:32;9.00;99.90
54684;DHT22;40582;53.100;6.686;2022-09-27T05:43:58;9.00;99.90
54684;DHT22;40582;53.100;6.686;2022-09-27T05:46:24;9.00;99.90
54684;DHT22;40582;53.100;6.686;2022-09-27T05:48:50;9.00;99.90
54684;DHT22;40582;53.100;6.686;2022-09-27T05:51:15;9.00;99.90
54684;DHT22;40582;53.100;6.686;2022-09-27T05:53:41;9.00;99.90
54684;DHT22;40582;53.100;6.686;2022-09-27T05:56:07;9.00;99.90
54684;DHT22;40582;53.100;6.686;2022-09-27T05:58:33;9.00;99.90
54684;DHT22;40582;53.100;6.686;2022-09-27T06:00:58;9.00;99.90
54684;DHT22;40582;53.100;6.686;2022-09-27T06:03:24;9.00;99.90
54684;DHT22;40582;53.100;6.686;2022-09-27T06:05:50;9.00;99.90
54684;DHT22;40582;53.100;6.686;2022-09-27T06:08:16;9.00;99.90
54684;DHT22;40582;53.100;6.686;2022-09-27T06:10:43;9.10;99.90
54684;DHT22;40582;53.100;6.686;2022-09-27T06:13:11;9.10;99.90
54684;DHT22;40582;53.100;6.686;2022-09-27T06:15:39;9.10;99.90
54684;DHT22;40582;53.100;6.686;2022-09-27T06:18:10;9.10;99.90
54684;DHT22;40582;53.100;6.686;2022-09-27T06:20:37;9.10;99.90
54684;DHT22;40582;53.100;6.686;2022-09-27T06:23:10;9.20;99.90
54684;DHT22;40582;53.100;6.686;2022-09-27T06:25:36;9.20;99.90
54684;DHT22;40582;53.100;6.686;2022-09-27T06:28:03;9.30;99.90
54684;DHT22;40582;53.100;6.686;2022-09-27T06:30:30;9.30;99.90
54684;DHT22;40582;53.100;6.686;2022-09-27T06:35:22;9.30;99.90
54684;DHT22;40582;53.100;6.686;2022-09-27T06:37:50;9.30;99.90
54684;DHT22;40582;53.100;6.686;2022-09-27T06:40:16;9.40;99.90
54684;DHT22;40582;53.100;6.686;2022-09-27T06:42:42;9.40;99.90
54684;DHT22;40582;53.100;6.686;2022-09-27T06:45:09;9.40;99.90
54684;DHT22;40582;53.100;6.686;2022-09-27T06:47:35;9.50;99.90
54684;DHT22;40582;53.100;6.686;2022-09-27T06:50:01;9.50;99.90
54684;DHT22;40582;53.100;6.686;2022-09-27T06:52:31;9.40;99.90
54684;DHT22;40582;53.100;6.686;2022-09-27T06:54:57;9.50;99.90
54684;DHT22;40582;53.100;6.686;2022-09-27T06:57:23;9.50;99.90
54684;DHT22;40582;53.100;6.686;2022-09-27T07:00:09;9.50;99.90
54684;DHT22;40582;53.100;6.686;2022-09-27T07:02:56;9.50;99.90
54684;DHT22;40582;53.100;6.686;2022-09-27T07:05:28;9.50;99.90
54684;DHT22;40582;53.100;6.686;2022-09-27T07:07:58;9.30;99.90
54684;DHT22;40582;53.100;6.686;2022-09-27T07:10:28;9.70;99.90
54684;DHT22;40582;53.100;6.686;2022-09-27T07:12:55;9.70;99.90
54684;DHT22;40582;53.100;6.686;2022-09-27T07:15:21;9.80;99.90
54684;DHT22;40582;53.100;6.686;2022-09-27T07:17:57;9.90;99.90
54684;DHT22;40582;53.100;6.686;2022-09-27T07:20:24;9.90;99.90
54684;DHT22;40582;53.100;6.686;2022-09-27T07:22:50;9.90;99.90
54684;DHT22;40582;53.100;6.686;2022-09-27T07:25:17;9.90;99.90
54684;DHT22;40582;53.100;6.686;2022-09-27T07:27:43;9.90;99.90
54684;DHT22;40582;53.100;6.686;2022-09-27T07:30:10;9.90;99.90
54684;DHT22;40582;53.100;6.686;2022-09-27T07:32:36;9.90;99.90
54684;DHT22;40582;53.100;6.686;2022-09-27T07:35:04;10.00;99.90
54684;DHT22;40582;53.100;6.686;2022-09-27T07:37:36;10.10;99.90
54684;DHT22;40582;53.100;6.686;2022-09-27T07:40:05;10.20;99.90
54684;DHT22;40582;53.100;6.686;2022-09-27T07:42:33;10.30;99.90
54684;DHT22;40582;53.100;6.686;2022-09-27T07:44:58;10.30;99.90
54684;DHT22;40582;53.100;6.686;2022-09-27T07:47:24;10.30;99.90
54684;DHT22;40582;53.100;6.686;2022-09-27T07:49:53;10.30;99.90
54684;DHT22;40582;53.100;6.686;2022-09-27T07:52:19;10.40;99.90
54684;DHT22;40582;53.100;6.686;2022-09-27T07:54:45;10.50;99.90
54684;DHT22;40582;53.100;6.686;2022-09-27T07:57:11;10.70;99.90
54684;DHT22;40582;53.100;6.686;2022-09-27T07:59:38;10.90;99.90
54684;DHT22;40582;53.100;6.686;2022-09-27T08:02:04;11.10;99.90
54684;DHT22;40582;53.100;6.686;2022-09-27T08:04:30;11.20;99.90
54684;DHT22;40582;53.100;6.686;2022-09-27T08:06:55;11.40;99.90
54684;DHT22;40582;53.100;6.686;2022-09-27T08:09:21;11.50;99.90
54684;DHT22;40582;53.100;6.686;2022-09-27T08:11:47;11.60;99.90
54684;DHT22;40582;53.100;6.686;2022-09-27T08:14:13;11.80;99.90
54684;DHT22;40582;53.100;6.686;2022-09-27T08:16:40;11.90;99.90
54684;DHT22;40582;53.100;6.686;2022-09-27T08:19:06;11.90;99.90
54684;DHT22;40582;53.100;6.686;2022-09-27T08:21:32;11.80;99.90
54684;DHT22;40582;53.100;6.686;2022-09-27T08:23:57;11.60;99.90
54684;DHT22;40582;53.100;6.686;2022-09-27T08:26:26;11.50;99.90
54684;DHT22;40582;53.100;6.686;2022-09-27T08:28:53;11.30;99.90
54684;DHT22;40582;53.100;6.686;2022-09-27T08:31:19;11.20;99.90
54684;DHT22;40582;53.100;6.686;2022-09-27T08:33:53;11.10;99.90
54684;DHT22;40582;53.100;6.686;2022-09-27T08:36:19;11.10;99.90
54684;DHT22;40582;53.100;6.686;2022-09-27T08:38:49;11.10;99.90
54684;DHT22;40582;53.100;6.686;2022-09-27T08:51:57;11.70;99.90
54684;DHT22;40582;53.100;6.686;2022-09-27T08:54:27;12.00;99.90
54684;DHT22;40582;53.100;6.686;2022-09-27T08:57:11;12.20;99.90
54684;DHT22;40582;53.100;6.686;2022-09-27T09:00:06;12.40;99.90
54684;DHT22;40582;53.100;6.686;2022-09-27T09:02:33;12.60;99.90
54684;DHT22;40582;53.100;6.686;2022-09-27T09:05:06;12.80;99.90
54684;DHT22;40582;53.100;6.686;2022-09-27T09:10:52;13.20;99.90
54684;DHT22;40582;53.100;6.686;2022-09-27T09:16:42;13.40;99.90
54684;DHT22;40582;53.100;6.686;2022-09-27T09:27:46;13.60;99.90
54684;DHT22;40582;53.100;6.686;2022-09-27T09:30:23;13.60;99.90
54684;DHT22;40582;53.100;6.686;2022-09-27T09:35:44;13.60;99.90
54684;DHT22;40582;53.100;6.686;2022-09-27T09:38:13;13.60;99.90
54684;DHT22;40582;53.100;6.686;2022-09-27T09:40:45;13.70;99.90
54684;DHT22;40582;53.100;6.686;2022-09-27T09:43:22;13.80;99.90
54684;DHT22;40582;53.100;6.686;2022-09-27T09:46:14;13.90;99.90
54684;DHT22;40582;53.100;6.686;2022-09-27T09:48:46;14.00;99.90
54684;DHT22;40582;53.100;6.686;2022-09-27T09:51:20;14.10;99.90
54684;DHT22;40582;53.100;6.686;2022-09-27T09:54:13;14.20;99.90
54684;DHT22;40582;53.100;6.686;2022-09-27T09:56:46;14.20;99.90
54684;DHT22;40582;53.100;6.686;2022-09-27T09:59:18;14.20;99.90
54684;DHT22;40582;53.100;6.686;2022-09-27T10:01:48;14.20;99.90
54684;DHT22;40582;53.100;6.686;2022-09-27T10:04:22;14.20;99.90
54684;DHT22;40582;53.100;6.686;2022-09-27T10:06:49;14.20;99.90
54684;DHT22;40582;53.100;6.686;2022-09-27T10:09:16;13.90;99.90
54684;DHT22;40582;53.100;6.686;2022-09-27T10:11:45;13.40;99.90
54684;DHT22;40582;53.100;6.686;2022-09-27T10:14:15;12.90;99.90
54684;DHT22;40582;53.100;6.686;2022-09-27T10:16:48;12.40;99.90
54684;DHT22;40582;53.100;6.686;2022-09-27T10:19:26;12.00;99.90
54684;DHT22;40582;53.100;6.686;2022-09-27T10:21:58;11.70;99.90
54684;DHT22;40582;53.100;6.686;2022-09-27T10:24:25;11.50;99.90
54684;DHT22;40582;53.100;6.686;2022-09-27T10:26:57;11.30;99.90
54684;DHT22;40582;53.100;6.686;2022-09-27T10:29:35;11.20;99.90
54684;DHT22;40582;53.100;6.686;2022-09-27T10:32:03;11.10;99.90
54684;DHT22;40582;53.100;6.686;2022-09-27T10:34:33;11.10;99.90
54684;DHT22;40582;53.100;6.686;2022-09-27T10:39:37;11.00;99.90
54684;DHT22;40582;53.100;6.686;2022-09-27T10:42:35;10.90;99.90
54684;DHT22;40582;53.100;6.686;2022-09-27T10:45:35;11.10;99.90
54684;DHT22;40582;53.100;6.686;2022-09-27T10:48:01;11.30;99.90
54684;DHT22;40582;53.100;6.686;2022-09-27T10:50:30;11.50;99.90
54684;DHT22;40582;53.100;6.686;2022-09-27T10:53:25;11.80;99.90
54684;DHT22;40582;53.100;6.686;2022-09-27T10:55:52;12.10;99.90
54684;DHT22;40582;53.100;6.686;2022-09-27T10:58:34;12.30;99.90
54684;DHT22;40582;53.100;6.686;2022-09-27T11:01:03;12.50;99.90
54684;DHT22;40582;53.100;6.686;2022-09-27T11:03:31;12.70;99.90
54684;DHT22;40582;53.100;6.686;2022-09-27T11:05:58;13.10;99.90
54684;DHT22;40582;53.100;6.686;2022-09-27T11:13:39;13.40;99.90
54684;DHT22;40582;53.100;6.686;2022-09-27T11:23:59;13.10;99.90
54684;DHT22;40582;53.100;6.686;2022-09-27T11:26:35;13.10;99.90
54684;DHT22;40582;53.100;6.686;2022-09-27T11:34:42;12.60;99.90
54684;DHT22;40582;53.100;6.686;2022-09-27T11:45:16;11.80;99.90
54684;DHT22;40582;53.100;6.686;2022-09-27T11:50:40;11.60;99.90
54684;DHT22;40582;53.100;6.686;2022-09-27T11:58:35;11.90;99.90
54684;DHT22;40582;53.100;6.686;2022-09-27T12:06:21;12.50;99.90
54684;DHT22;40582;53.100;6.686;2022-09-27T12:09:11;12.80;99.90
54684;DHT22;40582;53.100;6.686;2022-09-27T12:11:51;13.20;99.90
54684;DHT22;40582;53.100;6.686;2022-09-27T12:14:39;13.50;99.90
54684;DHT22;40582;53.100;6.686;2022-09-27T12:17:17;13.60;99.90
54684;DHT22;40582;53.100;6.686;2022-09-27T12:19:47;13.60;99.90
54684;DHT22;40582;53.100;6.686;2022-09-27T12:22:20;13.60;99.90
54684;DHT22;40582;53.100;6.686;2022-09-27T12:24:47;13.60;99.90
54684;DHT22;40582;53.100;6.686;2022-09-27T12:27:23;13.70;99.90
54684;DHT22;40582;53.100;6.686;2022-09-27T12:29:52;13.70;99.90
54684;DHT22;40582;53.100;6.686;2022-09-27T12:35:40;13.60;99.90
54684;DHT22;40582;53.100;6.686;2022-09-27T12:38:34;13.40;99.90
54684;DHT22;40582;53.100;6.686;2022-09-27T12:41:06;13.30;99.90
54684;DHT22;40582;53.100;6.686;2022-09-27T12:43:32;13.10;99.90
54684;DHT22;40582;53.100;6.686;2022-09-27T12:51:57;12.60;99.90
54684;DHT22;40582;53.100;6.686;2022-09-27T13:00:23;12.40;99.90
54684;DHT22;40582;53.100;6.686;2022-09-27T13:06:04;12.30;99.90
54684;DHT22;40582;53.100;6.686;2022-09-27T13:09:01;12.20;99.90
54684;DHT22;40582;53.100;6.686;2022-09-27T13:14:28;12.20;99.90
54684;DHT22;40582;53.100;6.686;2022-09-27T13:16:56;12.30;99.90
54684;DHT22;40582;53.100;6.686;2022-09-27T13:19:40;12.50;99.90
54684;DHT22;40582;53.100;6.686;2022-09-27T13:22:08;12.80;99.90
54684;DHT22;40582;53.100;6.686;2022-09-27T13:29:50;13.40;99.90
54684;DHT22;40582;53.100;6.686;2022-09-27T13:34:51;13.40;99.90
54684;DHT22;40582;53.100;6.686;2022-09-27T13:40:32;13.10;99.90
54684;DHT22;40582;53.100;6.686;2022-09-27T13:45:51;12.90;99.90
54684;DHT22;40582;53.100;6.686;2022-09-27T13:51:00;12.60;99.90
54684;DHT22;40582;53.100;6.686;2022-09-27T13:53:33;12.40;99.90
54684;DHT22;40582;53.100;6.686;2022-09-27T13:56:00;12.30;99.90
54684;DHT22;40582;53.100;6.686;2022-09-27T14:01:32;12.00;99.90
54684;DHT22;40582;53.100;6.686;2022-09-27T14:04:17;11.50;99.90
54684;DHT22;40582;53.100;6.686;2022-09-27T14:06:47;11.30;99.90
54684;DHT22;40582;53.100;6.686;2022-09-27T14:09:25;11.10;99.90
54684;DHT22;40582;53.100;6.686;2022-09-27T14:11:57;10.90;99.90
54684;DHT22;40582;53.100;6.686;2022-09-27T14:14:27;10.80;99.90
54684;DHT22;40582;53.100;6.686;2022-09-27T14:16:53;10.60;99.90
54684;DHT22;40582;53.100;6.686;2022-09-27T14:19:23;10.50;99.90
54684;DHT22;40582;53.100;6.686;2022-09-27T14:21:53;10.40;99.90
54684;DHT22;40582;53.100;6.686;2022-09-27T14:24:47;10.30;99.90
54684;DHT22;40582;53.100;6.686;2022-09-27T14:27:25;10.40;99.90
54684;DHT22;40582;53.100;6.686;2022-09-27T14:29:54;10.50;99.90
54684;DHT22;40582;53.100;6.686;2022-09-27T14:32:28;10.60;99.90
54684;DHT22;40582;53.100;6.686;2022-09-27T14:38:07;10.90;99.90
54684;DHT22;40582;53.100;6.686;2022-09-27T14:40:39;11.00;99.90
54684;DHT22;40582;53.100;6.686;2022-09-27T14:43:14;11.00;99.90
54684;DHT22;40582;53.100;6.686;2022-09-27T14:45:41;11.10;99.90
54684;DHT22;40582;53.100;6.686;2022-09-27T14:48:31;11.10;99.90
54684;DHT22;40582;53.100;6.686;2022-09-27T14:53:55;11.20;99.90
54684;DHT22;40582;53.100;6.686;2022-09-27T14:56:32;11.20;99.90
54684;DHT22;40582;53.100;6.686;2022-09-27T14:59:05;11.30;99.90
54684;DHT22;40582;53.100;6.686;2022-09-27T15:01:33;11.30;99.90
54684;DHT22;40582;53.100;6.686;2022-09-27T15:04:10;11.30;99.90
54684;DHT22;40582;53.100;6.686;2022-09-27T15:06:36;11.30;99.90
54684;DHT22;40582;53.100;6.686;2022-09-27T15:09:04;11.30;99.90
54684;DHT22;40582;53.100;6.686;2022-09-27T15:11:31;11.30;99.90
54684;DHT22;40582;53.100;6.686;2022-09-27T15:13:59;11.30;99.90
54684;DHT22;40582;53.100;6.686;2022-09-27T15:16:27;11.40;99.90
54684;DHT22;40582;53.100;6.686;2022-09-27T15:19:14;11.40;99.90
54684;DHT22;40582;53.100;6.686;2022-09-27T15:21:40;11.40;99.90
54684;DHT22;40582;53.100;6.686;2022-09-27T15:24:38;11.40;99.90
54684;DHT22;40582;53.100;6.686;2022-09-27T15:27:20;11.50;99.90
54684;DHT22;40582;53.100;6.686;2022-09-27T15:29:52;11.40;99.90
54684;DHT22;40582;53.100;6.686;2022-09-27T15:32:21;11.50;99.90
54684;DHT22;40582;53.100;6.686;2022-09-27T15:34:48;11.50;99.90
54684;DHT22;40582;53.100;6.686;2022-09-27T15:37:38;11.50;99.90
54684;DHT22;40582;53.100;6.686;2022-09-27T15:42:58;11.40;99.90
54684;DHT22;40582;53.100;6.686;2022-09-27T15:45:31;11.30;99.90
54684;DHT22;40582;53.100;6.686;2022-09-27T15:48:14;11.30;99.90
54684;DHT22;40582;53.100;6.686;2022-09-27T15:50:40;11.20;99.90
54684;DHT22;40582;53.100;6.686;2022-09-27T15:53:07;11.10;99.90
54684;DHT22;40582;53.100;6.686;2022-09-27T15:55:38;11.10;99.90
54684;DHT22;40582;53.100;6.686;2022-09-27T15:58:09;11.10;99.90
54684;DHT22;40582;53.100;6.686;2022-09-27T16:00:56;11.10;99.90
54684;DHT22;40582;53.100;6.686;2022-09-27T16:03:23;11.10;99.90
54684;DHT22;40582;53.100;6.686;2022-09-27T16:05:50;11.00;99.90
54684;DHT22;40582;53.100;6.686;2022-09-27T16:08:15;11.00;99.90
54684;DHT22;40582;53.100;6.686;2022-09-27T16:10:44;11.00;99.90
54684;DHT22;40582;53.100;6.686;2022-09-27T16:13:11;11.00;99.90
54684;DHT22;40582;53.100;6.686;2022-09-27T16:15:36;10.90;99.90
54684;DHT22;40582;53.100;6.686;2022-09-27T16:18:03;10.90;99.90
54684;DHT22;40582;53.100;6.686;2022-09-27T16:20:28;10.80;99.90
54684;DHT22;40582;53.100;6.686;2022-09-27T16:22:56;10.80;99.90
54684;DHT22;40582;53.100;6.686;2022-09-27T16:25:22;10.70;99.90
54684;DHT22;40582;53.100;6.686;2022-09-27T16:27:48;10.80;99.90
54684;DHT22;40582;53.100;6.686;2022-09-27T16:30:15;10.70;99.90
54684;DHT22;40582;53.100;6.686;2022-09-27T16:32:46;10.70;99.90
54684;DHT22;40582;53.100;6.686;2022-09-27T16:35:14;10.70;99.90
54684;DHT22;40582;53.100;6.686;2022-09-27T16:37:40;10.60;99.90
54684;DHT22;40582;53.100;6.686;2022-09-27T16:40:07;10.60;99.90
54684;DHT22;40582;53.100;6.686;2022-09-27T16:42:34;10.50;99.90
54684;DHT22;40582;53.100;6.686;2022-09-27T16:45:00;10.50;99.90
54684;DHT22;40582;53.100;6.686;2022-09-27T16:47:27;10.40;99.90
54684;DHT22;40582;53.100;6.686;2022-09-27T16:49:53;10.30;99.90
54684;DHT22;40582;53.100;6.686;2022-09-27T16:52:37;10.30;99.90
54684;DHT22;40582;53.100;6.686;2022-09-27T16:55:04;10.20;99.90
54684;DHT22;40582;53.100;6.686;2022-09-27T16:57:31;10.20;99.90
54684;DHT22;40582;53.100;6.686;2022-09-27T16:59:59;10.20;99.90
54684;DHT22;40582;53.100;6.686;2022-09-27T17:02:25;10.10;99.90
54684;DHT22;40582;53.100;6.686;2022-09-27T17:04:51;10.10;99.90
54684;DHT22;40582;53.100;6.686;2022-09-27T17:07:18;10.00;99.90
54684;DHT22;40582;53.100;6.686;2022-09-27T17:09:44;10.00;99.90
54684;DHT22;40582;53.100;6.686;2022-09-27T17:12:11;10.00;99.90
54684;DHT22;40582;53.100;6.686;2022-09-27T17:14:37;9.90;99.90
54684;DHT22;40582;53.100;6.686;2022-09-27T17:17:02;9.90;99.90
54684;DHT22;40582;53.100;6.686;2022-09-27T17:19:28;9.80;99.90
54684;DHT22;40582;53.100;6.686;2022-09-27T17:21:54;9.70;99.90
54684;DHT22;40582;53.100;6.686;2022-09-27T17:24:21;9.70;99.90
54684;DHT22;40582;53.100;6.686;2022-09-27T17:26:46;9.60;99.90
54684;DHT22;40582;53.100;6.686;2022-09-27T17:29:13;9.50;99.90
54684;DHT22;40582;53.100;6.686;2022-09-27T17:31:40;9.40;99.90
54684;DHT22;40582;53.100;6.686;2022-09-27T17:34:07;9.40;99.90
54684;DHT22;40582;53.100;6.686;2022-09-27T17:36:35;9.30;99.90
54684;DHT22;40582;53.100;6.686;2022-09-27T17:39:03;9.20;99.90
54684;DHT22;40582;53.100;6.686;2022-09-27T17:41:29;9.20;99.90
54684;DHT22;40582;53.100;6.686;2022-09-27T17:43:59;9.10;99.90
54684;DHT22;40582;53.100;6.686;2022-09-27T17:46:28;9.10;99.90
54684;DHT22;40582;53.100;6.686;2022-09-27T17:48:54;9.00;99.90
54684;DHT22;40582;53.100;6.686;2022-09-27T17:51:40;8.90;99.90
54684;DHT22;40582;53.100;6.686;2022-09-27T17:54:08;9.00;99.90
54684;DHT22;40582;53.100;6.686;2022-09-27T17:56:38;8.90;99.90
54684;DHT22;40582;53.100;6.686;2022-09-27T17:59:05;8.90;99.90
54684;DHT22;40582;53.100;6.686;2022-09-27T18:01:32;8.80;99.90
54684;DHT22;40582;53.100;6.686;2022-09-27T18:03:59;8.80;99.90
54684;DHT22;40582;53.100;6.686;2022-09-27T18:06:26;8.80;99.90
54684;DHT22;40582;53.100;6.686;2022-09-27T18:08:53;8.70;99.90
54684;DHT22;40582;53.100;6.686;2022-09-27T18:11:21;8.70;99.90
54684;DHT22;40582;53.100;6.686;2022-09-27T18:13:56;8.70;99.90
54684;DHT22;40582;53.100;6.686;2022-09-27T18:16:25;8.70;99.90
54684;DHT22;40582;53.100;6.686;2022-09-27T18:18:57;8.70;99.90
54684;DHT22;40582;53.100;6.686;2022-09-27T18:21:24;8.70;99.90
54684;DHT22;40582;53.100;6.686;2022-09-27T18:23:53;8.70;99.90
54684;DHT22;40582;53.100;6.686;2022-09-27T18:26:22;8.70;99.90
54684;DHT22;40582;53.100;6.686;2022-09-27T18:28:52;8.70;99.90
54684;DHT22;40582;53.100;6.686;2022-09-27T18:31:20;8.70;99.90
54684;DHT22;40582;53.100;6.686;2022-09-27T18:33:47;8.60;99.90
54684;DHT22;40582;53.100;6.686;2022-09-27T18:36:21;8.60;99.90
54684;DHT22;40582;53.100;6.686;2022-09-27T18:38:54;8.60;99.90
54684;DHT22;40582;53.100;6.686;2022-09-27T18:41:21;8.60;99.90
54684;DHT22;40582;53.100;6.686;2022-09-27T18:43:47;8.70;99.90
54684;DHT22;40582;53.100;6.686;2022-09-27T18:46:16;8.60;99.90
54684;DHT22;40582;53.100;6.686;2022-09-27T18:48:43;8.60;99.90